Shelby, Nebraska
Current Conditions -  °F | °C
As of 12:15 PM on Thursday 23 Oct 2014 (Local Time) from KOLU Reporting Station
Clear Clear  
Wind Chill: 59°   Ceiling: Unl
Heat Index: 59°   Visibility: 10mi
Dew Point: 52°   Wind: 8mph
Humidity: 77%   Direction: 220°SW
Pressure: 30.11"   Gusts: NA
Location:  41.19°N, 97.43°W
Report Text: KOLU 231715Z AUTO 22007KT 10SM CLR 15/11 A3011 RMK AO1
Loading
Personal Weather Stations






























Interactive Weather Map
Tropical Storm Tracking
New forecast layout! Learn more

10-Day Weather Forecast

Advertisements
Track Severe Weather on mobile